Cope, Colorado
Current Conditions -  °F | °C
As of 9:53 AM on Sunday 21 Dec 2014 (Local Time) from KAKO Reporting Station
Overcast Overcast  
Wind Chill: 33°   Ceiling: 10000
Heat Index: 39°   Visibility: 10mi
Dew Point: 25°   Wind: 9mph
Humidity: 57%   Direction: 190°S
Pressure: 29.67"   Gusts: NA
Location:  39.66°N, 102.85°W
Report Text: KAKO 211653Z AUTO 19008KT 10SM OVC100 04/M04 A2967 RMK AO2 SLP055 T00391039
Loading
Personal Weather Stations






























Interactive Weather Map New forecast layout! Learn more

10-Day Weather Forecast

Advertisements
Track Severe Weather on mobile